createdAt,value
2022-11-24T00:00:11.470Z,13.80
2022-11-24T00:01:15.902Z,9.45
2022-11-24T00:02:19.540Z,12.23
2022-11-24T00:03:22.111Z,10.30
2022-11-24T00:04:25.818Z,12.02
2022-11-24T00:05:28.152Z,13.95
2022-11-24T00:06:33.427Z,9.95
2022-11-24T00:07:35.844Z,12.60
2022-11-24T00:08:40.724Z,9.63
2022-11-24T00:09:43.044Z,14.10
2022-11-24T00:10:46.326Z,13.32
2022-11-24T00:11:48.640Z,11.23
2022-11-24T00:12:51.931Z,13.25
2022-11-24T00:13:54.337Z,12.93
2022-11-24T00:14:57.719Z,12.93
2022-11-24T00:16:09.684Z,12.60
2022-11-24T00:17:13.039Z,12.60
2022-11-24T00:18:15.345Z,12.32
2022-11-24T00:19:19.932Z,15.68
2022-11-24T00:20:22.391Z,13.98
2022-11-24T00:21:27.461Z,13.45
2022-11-24T00:22:29.803Z,13.73
2022-11-24T00:23:33.706Z,14.05
2022-11-24T00:24:36.186Z,10.40
2022-11-24T00:25:39.618Z,11.18
2022-11-24T00:26:43.320Z,11.02
2022-11-24T00:27:45.777Z,13.85
2022-11-24T00:28:50.454Z,19.48
2022-11-24T00:29:52.796Z,13.23
2022-11-24T00:30:56.186Z,9.70
2022-11-24T00:31:59.999Z,13.10
2022-11-24T00:33:03.443Z,20.63
2022-11-24T00:34:08.015Z,12.30
2022-11-24T00:35:11.374Z,14.93
2022-11-24T00:36:14.577Z,11.65
2022-11-24T00:37:17.878Z,10.20
2022-11-24T00:38:20.319Z,12.90
2022-11-24T00:39:23.872Z,14.77
2022-11-24T00:40:29.656Z,13.00
2022-11-24T00:41:35.677Z,16.10
2022-11-24T00:42:37.984Z,12.38
2022-11-24T00:43:41.343Z,16.30
2022-11-24T00:44:43.699Z,11.70
2022-11-24T00:45:47.146Z,15.70
2022-11-24T00:46:49.662Z,15.68
2022-11-24T00:47:54.439Z,12.52
2022-11-24T00:49:00.369Z,12.43
2022-11-24T00:50:02.727Z,13.82
2022-11-24T00:51:08.199Z,16.08
2022-11-24T00:52:10.600Z,13.07
2022-11-24T00:53:14.275Z,12.93
2022-11-24T00:54:17.071Z,8.75
2022-11-24T00:55:21.147Z,15.35
2022-11-24T00:56:23.661Z,14.88
2022-11-24T00:57:26.814Z,9.43
2022-11-24T00:58:29.063Z,12.98
2022-11-24T00:59:32.642Z,12.38
2022-11-24T01:00:35.390Z,15.38
2022-11-24T01:01:39.378Z,11.05
2022-11-24T01:02:41.940Z,10.25
2022-11-24T01:03:48.159Z,12.40
2022-11-24T01:04:50.763Z,15.68
2022-11-24T01:05:54.531Z,10.80
2022-11-24T01:06:57.368Z,13.43
2022-11-24T01:08:01.330Z,14.23
2022-11-24T01:09:05.672Z,13.88
2022-11-24T01:10:09.161Z,13.57
2022-11-24T01:11:15.118Z,8.70
2022-11-24T01:12:18.284Z,8.57
2022-11-24T01:13:22.789Z,13.15
2022-11-24T01:14:26.172Z,14.07
2022-11-24T01:15:30.258Z,13.50
2022-11-24T01:16:35.010Z,13.15
2022-11-24T01:17:38.294Z,18.48
2022-11-24T01:18:40.527Z,12.00
2022-11-24T01:19:47.147Z,15.50
2022-11-24T01:20:49.331Z,12.48
2022-11-24T01:21:52.555Z,11.25
2022-11-24T01:22:54.880Z,12.88
2022-11-24T01:23:59.012Z,13.93
2022-11-24T01:25:01.183Z,12.13
2022-11-24T01:26:06.747Z,12.98
2022-11-24T01:27:09.154Z,10.80
2022-11-24T01:28:12.415Z,11.55
2022-11-24T01:29:14.661Z,13.43
2022-11-24T01:30:18.845Z,12.50
2022-11-24T01:31:21.423Z,15.35
2022-11-24T01:32:24.712Z,14.98
2022-11-24T01:33:27.230Z,8.90
2022-11-24T01:34:31.370Z,12.70
2022-11-24T01:35:36.599Z,15.00
2022-11-24T01:36:40.390Z,11.43
2022-11-24T01:37:42.845Z,14.93
2022-11-24T01:38:46.100Z,10.85
2022-11-24T01:39:48.272Z,15.48
2022-11-24T01:40:51.501Z,13.70
2022-11-24T01:41:53.909Z,13.60
2022-11-24T01:42:57.651Z,13.27
2022-11-24T01:44:00.257Z,15.60
2022-11-24T01:45:29.297Z,9.45
2022-11-24T01:46:39.723Z,14.00
2022-11-24T01:47:42.272Z,16.13
2022-11-24T01:48:50.489Z,15.40
2022-11-24T01:49:56.142Z,14.05
2022-11-24T01:51:08.390Z,10.00
2022-11-24T01:52:15.483Z,15.07
2022-11-24T01:53:18.696Z,12.02
2022-11-24T01:54:25.226Z,7.57
2022-11-24T01:55:33.146Z,11.25
2022-11-24T01:56:39.573Z,18.02
2022-11-24T01:57:45.862Z,11.10
2022-11-24T01:58:49.814Z,13.85
2022-11-24T01:59:57.140Z,13.65
2022-11-24T02:01:00.508Z,12.93
2022-11-24T02:02:03.928Z,9.75
2022-11-24T02:03:06.684Z,12.10
2022-11-24T02:04:13.971Z,10.00
2022-11-24T02:05:21.787Z,16.27
2022-11-24T02:06:28.979Z,14.02
2022-11-24T02:07:31.952Z,15.98
2022-11-24T02:08:42.898Z,18.42
2022-11-24T02:09:50.329Z,12.60
2022-11-24T02:10:55.438Z,15.27
2022-11-24T02:11:59.718Z,11.43
2022-11-24T02:13:03.148Z,14.70
2022-11-24T02:14:06.101Z,12.48
2022-11-24T02:15:11.878Z,12.20
2022-11-24T02:16:14.115Z,14.60
2022-11-24T02:17:17.497Z,12.93
2022-11-24T02:18:19.704Z,16.70
2022-11-24T02:19:34.083Z,16.20
2022-11-24T02:20:36.671Z,15.23
2022-11-24T02:21:41.296Z,12.55
2022-11-24T02:22:47.999Z,11.65
2022-11-24T02:23:58.474Z,16.52
2022-11-24T02:25:06.988Z,13.50
2022-11-24T02:26:20.167Z,10.85
2022-11-24T02:27:23.806Z,16.67
2022-11-24T02:28:30.172Z,13.68
2022-11-24T02:29:32.421Z,13.70
2022-11-24T02:30:36.356Z,14.27
2022-11-24T02:31:40.951Z,17.48
2022-11-24T02:32:44.496Z,18.50
2022-11-24T02:33:48.939Z,15.30
2022-11-24T02:35:01.339Z,13.90
2022-11-24T02:36:03.902Z,13.75
2022-11-24T02:37:07.089Z,12.45
2022-11-24T02:38:11.556Z,18.95
2022-11-24T02:39:16.275Z,12.88
2022-11-24T02:40:24.984Z,17.83
2022-11-24T02:41:30.178Z,10.90
2022-11-24T02:42:38.494Z,14.02
2022-11-24T02:43:46.058Z,14.90
2022-11-24T02:44:51.203Z,11.38
2022-11-24T02:45:54.475Z,14.20
2022-11-24T02:47:04.031Z,13.65
2022-11-24T02:48:07.858Z,15.10
2022-11-24T02:49:10.032Z,16.77
2022-11-24T02:50:13.305Z,18.50
2022-11-24T02:51:15.616Z,15.60
2022-11-24T02:52:18.980Z,17.73
2022-11-24T02:53:21.261Z,15.45
2022-11-24T02:54:24.481Z,16.58
2022-11-24T02:55:26.680Z,11.75
2022-11-24T02:56:29.962Z,12.25
2022-11-24T02:57:33.628Z,14.63
2022-11-24T02:58:36.960Z,18.25
2022-11-24T02:59:39.164Z,21.13
2022-11-24T03:00:42.442Z,18.23
2022-11-24T03:01:44.752Z,18.38
2022-11-24T03:02:48.425Z,15.63
2022-11-24T03:03:50.611Z,13.52
2022-11-24T03:04:53.881Z,13.63
2022-11-24T03:05:56.140Z,17.20
2022-11-24T03:06:59.448Z,13.68
2022-11-24T03:08:01.645Z,14.18
2022-11-24T03:09:05.234Z,14.65
2022-11-24T03:10:07.800Z,11.68
2022-11-24T03:11:11.044Z,13.80
2022-11-24T03:12:13.228Z,15.82
2022-11-24T03:13:18.086Z,16.65
2022-11-24T03:14:20.524Z,12.25
2022-11-24T03:15:24.303Z,13.52
2022-11-24T03:16:26.825Z,14.15
2022-11-24T03:17:30.395Z,11.23
2022-11-24T03:18:32.616Z,15.48
2022-11-24T03:19:36.015Z,16.58
2022-11-24T03:20:38.407Z,13.68
2022-11-24T03:21:41.687Z,12.63
2022-11-24T03:22:44.145Z,13.98
2022-11-24T03:23:48.031Z,19.88
2022-11-24T03:24:50.237Z,11.75
2022-11-24T03:25:53.471Z,16.52
2022-11-24T03:26:55.975Z,13.63
2022-11-24T03:27:59.445Z,13.35
2022-11-24T03:29:03.441Z,15.07
2022-11-24T03:30:08.199Z,12.93
2022-11-24T03:31:11.551Z,13.13
2022-11-24T03:32:14.829Z,9.63
2022-11-24T03:33:17.016Z,15.40
2022-11-24T03:34:20.412Z,12.07
2022-11-24T03:35:22.733Z,16.58
2022-11-24T03:36:26.135Z,10.77
2022-11-24T03:37:29.603Z,12.00
2022-11-24T03:38:32.931Z,14.10
2022-11-24T03:39:35.152Z,13.60
2022-11-24T03:40:38.335Z,10.60
2022-11-24T03:41:40.481Z,11.48
2022-11-24T03:42:43.692Z,9.93
2022-11-24T03:43:45.981Z,12.40
2022-11-24T03:44:50.649Z,11.75
2022-11-24T03:45:52.824Z,15.52
2022-11-24T03:46:56.067Z,11.50
2022-11-24T03:47:58.276Z,15.23
2022-11-24T03:49:01.717Z,20.70
2022-11-24T03:50:04.625Z,15.68
2022-11-24T03:51:08.563Z,15.32
2022-11-24T03:52:10.757Z,14.65
2022-11-24T03:53:13.913Z,16.90
2022-11-24T03:54:16.127Z,20.85
2022-11-24T03:55:19.368Z,18.08
2022-11-24T03:56:21.627Z,13.52
2022-11-24T03:57:24.803Z,16.95
2022-11-24T03:58:27.120Z,15.45
2022-11-24T03:59:30.244Z,12.70
2022-11-24T04:00:33.806Z,17.98
2022-11-24T04:01:37.101Z,17.02
2022-11-24T04:02:39.396Z,18.77
2022-11-24T04:03:42.620Z,18.60
2022-11-24T04:04:50.546Z,11.73
2022-11-24T04:05:53.776Z,14.68
2022-11-24T04:06:56.035Z,15.68
2022-11-24T04:08:02.972Z,13.52
2022-11-24T04:09:05.199Z,15.65
2022-11-24T04:10:09.251Z,17.88
2022-11-24T04:11:31.708Z,13.70
2022-11-24T04:12:46.077Z,16.98
2022-11-24T04:13:49.286Z,18.75
2022-11-24T04:14:51.343Z,15.75
2022-11-24T04:15:55.988Z,14.57
2022-11-24T04:16:58.257Z,14.02
2022-11-24T04:18:01.338Z,13.02
2022-11-24T04:19:03.681Z,16.80
2022-11-24T04:20:07.617Z,13.07
2022-11-24T04:21:09.682Z,14.20
2022-11-24T04:22:12.730Z,23.95
2022-11-24T04:23:14.824Z,15.30
2022-11-24T04:24:17.893Z,12.55
2022-11-24T04:25:20.026Z,19.80
2022-11-24T04:26:23.274Z,16.80
2022-11-24T04:27:25.387Z,16.90
2022-11-24T04:28:28.442Z,18.00
2022-11-24T04:29:30.570Z,18.73
2022-11-24T04:30:33.660Z,18.92
2022-11-24T04:31:37.114Z,13.02
2022-11-24T04:32:40.278Z,13.98
2022-11-24T04:33:42.317Z,14.57
2022-11-24T04:34:45.416Z,13.95
2022-11-24T04:35:47.570Z,15.52
2022-11-24T04:36:50.735Z,18.02
2022-11-24T04:37:52.834Z,13.50
2022-11-24T04:39:23.250Z,13.48
2022-11-24T04:40:19.506Z,17.98
2022-11-24T04:41:21.588Z,13.68
2022-11-24T04:42:24.656Z,20.13
2022-11-24T04:43:26.693Z,12.05
2022-11-24T04:44:29.923Z,17.25
2022-11-24T04:45:32.027Z,15.63
2022-11-24T04:46:35.157Z,13.50
2022-11-24T04:47:39.550Z,11.63
2022-11-24T04:48:43.202Z,14.52
2022-11-24T04:49:46.905Z,13.90
2022-11-24T04:50:50.014Z,14.23
2022-11-24T04:51:53.101Z,15.18
2022-11-24T04:52:55.200Z,15.93
2022-11-24T04:53:58.268Z,10.27
2022-11-24T04:55:00.397Z,18.00
2022-11-24T04:56:06.198Z,21.10
2022-11-24T04:57:09.649Z,16.80
2022-11-24T04:58:13.092Z,11.13
2022-11-24T04:59:15.423Z,12.57
2022-11-24T05:00:19.757Z,11.88
2022-11-24T05:01:21.851Z,11.98
2022-11-24T05:02:25.487Z,22.83
2022-11-24T05:03:28.932Z,15.05
2022-11-24T05:04:32.466Z,16.52
2022-11-24T05:05:34.850Z,15.55
2022-11-24T05:06:37.980Z,13.52
2022-11-24T05:07:40.106Z,14.18
2022-11-24T05:08:43.209Z,15.52
2022-11-24T05:10:03.931Z,18.40
2022-11-24T05:11:07.979Z,15.88
2022-11-24T05:12:10.131Z,14.15
2022-11-24T05:13:14.459Z,18.13
2022-11-24T05:14:16.512Z,17.83
2022-11-24T05:15:19.727Z,11.52
2022-11-24T05:16:22.801Z,13.90
2022-11-24T05:17:25.047Z,17.42
2022-11-24T05:18:30.029Z,14.05
2022-11-24T05:19:32.541Z,14.95
2022-11-24T05:20:36.089Z,15.45
2022-11-24T05:21:38.113Z,10.65
2022-11-24T05:22:41.212Z,19.92
2022-11-24T05:23:43.412Z,13.98
2022-11-24T05:24:46.486Z,17.35
2022-11-24T05:25:48.528Z,19.30
2022-11-24T05:26:51.561Z,11.38
2022-11-24T05:27:53.616Z,11.10
2022-11-24T05:28:56.733Z,22.27
2022-11-24T05:29:58.975Z,15.60
2022-11-24T05:31:02.662Z,22.73
2022-11-24T05:32:05.146Z,18.60
2022-11-24T05:33:08.832Z,15.80
2022-11-24T05:34:14.230Z,14.23
2022-11-24T05:35:18.863Z,23.10
2022-11-24T05:36:39.414Z,20.73
2022-11-24T05:37:42.468Z,18.52
2022-11-24T05:38:44.494Z,17.75
2022-11-24T05:39:47.663Z,19.08
2022-11-24T05:40:49.693Z,18.92
2022-11-24T05:41:53.147Z,18.05
2022-11-24T05:42:55.181Z,18.73
2022-11-24T05:43:58.254Z,15.65
2022-11-24T05:45:00.329Z,14.98
2022-11-24T05:46:03.539Z,19.58
2022-11-24T05:47:05.659Z,15.05
2022-11-24T05:48:11.674Z,16.38
2022-11-24T05:49:15.091Z,18.92
2022-11-24T05:50:20.265Z,16.95
2022-11-24T05:51:22.315Z,19.73
2022-11-24T05:52:25.417Z,18.48
2022-11-24T05:53:27.473Z,15.55
2022-11-24T05:54:30.659Z,22.17
2022-11-24T05:55:33.766Z,22.45
2022-11-24T05:56:35.877Z,20.23
2022-11-24T05:57:39.225Z,19.75
2022-11-24T05:58:42.526Z,22.48
2022-11-24T05:59:45.983Z,25.05
2022-11-24T06:00:48.381Z,20.58
2022-11-24T06:01:51.569Z,24.92
2022-11-24T06:02:54.051Z,17.48
2022-11-24T06:03:57.294Z,19.40
2022-11-24T06:05:00.757Z,24.30
2022-11-24T06:06:04.260Z,21.45
2022-11-24T06:07:07.832Z,24.50
2022-11-24T06:08:10.928Z,20.60
2022-11-24T06:09:13.043Z,20.02
2022-11-24T06:10:16.677Z,24.10
2022-11-24T06:11:18.729Z,20.00
2022-11-24T06:12:21.909Z,28.67
2022-11-24T06:13:24.044Z,20.55
2022-11-24T06:14:27.381Z,22.00
2022-11-24T06:15:30.475Z,17.55
2022-11-24T06:16:32.610Z,24.45
2022-11-24T06:17:35.726Z,25.05
2022-11-24T06:18:38.218Z,23.67
2022-11-24T06:19:42.236Z,20.05
2022-11-24T06:21:02.822Z,24.13
2022-11-24T06:22:08.931Z,24.38
2022-11-24T06:23:12.311Z,29.42
2022-11-24T06:24:14.763Z,26.48
2022-11-24T06:25:18.216Z,25.08
2022-11-24T06:26:20.321Z,19.20
2022-11-24T06:27:23.495Z,23.80
2022-11-24T06:28:25.917Z,18.95
2022-11-24T06:29:28.997Z,21.00
2022-11-24T06:30:31.190Z,24.25
2022-11-24T06:31:34.758Z,23.13
2022-11-24T06:32:37.057Z,19.80
2022-11-24T06:33:40.310Z,21.52
2022-11-24T06:34:42.818Z,18.90
2022-11-24T06:35:47.419Z,26.55
2022-11-24T06:36:49.528Z,21.75
2022-11-24T06:37:52.583Z,20.15
2022-11-24T06:38:54.655Z,13.73
2022-11-24T06:39:57.764Z,25.05
2022-11-24T06:41:01.185Z,20.10
2022-11-24T06:42:05.004Z,14.93
2022-11-24T06:43:07.067Z,22.20
2022-11-24T06:44:10.320Z,25.92
2022-11-24T06:45:13.356Z,18.65
2022-11-24T06:46:15.577Z,17.23
2022-11-24T06:47:18.700Z,18.63
2022-11-24T06:48:20.838Z,30.08
2022-11-24T06:49:23.949Z,17.23
2022-11-24T06:50:29.299Z,22.95
2022-11-24T06:51:37.823Z,25.70
2022-11-24T06:52:39.921Z,24.98
2022-11-24T06:53:43.151Z,27.10
2022-11-24T06:54:45.252Z,24.75
2022-11-24T06:55:48.596Z,26.55
2022-11-24T06:56:56.633Z,26.48
2022-11-24T06:57:58.757Z,25.80
2022-11-24T06:59:02.974Z,26.33
2022-11-24T07:00:06.411Z,28.58
2022-11-24T07:01:09.906Z,21.15
2022-11-24T07:02:12.074Z,26.73
2022-11-24T07:03:18.951Z,21.10
2022-11-24T07:04:22.044Z,27.92
2022-11-24T07:05:24.077Z,25.92
2022-11-24T07:06:28.421Z,31.67
2022-11-24T07:07:32.916Z,25.80
2022-11-24T07:08:35.029Z,22.77
2022-11-24T07:09:38.098Z,24.77
2022-11-24T07:10:41.241Z,30.52
2022-11-24T07:11:44.631Z,24.25
2022-11-24T07:12:47.831Z,26.25
2022-11-24T07:13:55.135Z,21.67
2022-11-24T07:15:01.443Z,31.10
2022-11-24T07:16:11.799Z,27.33
2022-11-24T07:17:14.882Z,27.25
2022-11-24T07:18:16.980Z,30.67
2022-11-24T07:19:24.578Z,24.33
2022-11-24T07:20:28.342Z,29.42
2022-11-24T07:21:31.644Z,27.70
2022-11-24T07:22:35.530Z,19.15
2022-11-24T07:23:38.916Z,31.42
2022-11-24T07:24:41.995Z,32.58
2022-11-24T07:25:44.156Z,26.33
2022-11-24T07:26:47.280Z,29.02
2022-11-24T07:27:49.313Z,26.00
2022-11-24T07:28:52.375Z,26.20
2022-11-24T07:29:54.419Z,28.35
2022-11-24T07:30:57.735Z,30.73
2022-11-24T07:32:05.172Z,35.10
2022-11-24T07:33:08.893Z,40.53
2022-11-24T07:34:11.974Z,31.00
2022-11-24T07:35:15.036Z,38.70
2022-11-24T07:36:18.278Z,29.55
2022-11-24T07:37:22.261Z,31.35
2022-11-24T07:38:31.008Z,30.33
2022-11-24T07:39:35.181Z,28.00
2022-11-24T07:40:38.445Z,33.53
2022-11-24T07:41:40.505Z,24.60
2022-11-24T07:42:45.967Z,22.17
2022-11-24T07:43:48.981Z,31.45
2022-11-24T07:44:52.952Z,37.33
2022-11-24T07:45:55.382Z,28.13
2022-11-24T07:46:58.732Z,20.60
2022-11-24T07:48:01.164Z,31.83
2022-11-24T07:49:04.363Z,31.80
2022-11-24T07:50:09.716Z,30.00
2022-11-24T07:51:13.170Z,29.00
2022-11-24T07:52:15.261Z,30.77
2022-11-24T07:53:18.635Z,25.73
2022-11-24T07:54:23.102Z,23.98
2022-11-24T07:55:25.166Z,22.35
2022-11-24T07:56:28.342Z,28.27
2022-11-24T07:57:30.930Z,29.63
2022-11-24T07:58:35.425Z,27.23
2022-11-24T07:59:38.813Z,26.23
2022-11-24T08:00:41.633Z,38.13
2022-11-24T08:01:45.414Z,27.17
2022-11-24T08:02:47.594Z,32.72
2022-11-24T08:03:50.754Z,25.33
2022-11-24T08:04:52.963Z,26.70
2022-11-24T08:06:22.332Z,27.50
2022-11-24T08:07:19.473Z,26.45
2022-11-24T08:08:22.200Z,26.00
2022-11-24T08:09:26.701Z,24.40
2022-11-24T08:10:28.776Z,33.35
2022-11-24T08:11:32.957Z,29.88
2022-11-24T08:12:36.087Z,30.10
2022-11-24T08:13:38.140Z,26.38
2022-11-24T08:14:41.247Z,26.92
2022-11-24T08:15:43.292Z,30.85
2022-11-24T08:16:46.421Z,27.60
2022-11-24T08:17:49.500Z,32.35
2022-11-24T08:18:53.230Z,24.75
2022-11-24T08:19:56.323Z,24.50
2022-11-24T08:21:00.022Z,23.35
2022-11-24T08:22:02.090Z,27.08
2022-11-24T08:23:05.633Z,22.48
2022-11-24T08:24:09.807Z,28.08
2022-11-24T08:25:15.341Z,33.72
2022-11-24T08:26:19.389Z,29.98
2022-11-24T08:27:22.494Z,27.33
2022-11-24T08:28:24.551Z,28.13
2022-11-24T08:29:29.497Z,28.45
2022-11-24T08:30:32.963Z,38.53
2022-11-24T08:31:36.430Z,24.42
2022-11-24T08:32:38.612Z,28.20
2022-11-24T08:33:42.845Z,25.70
2022-11-24T08:34:46.000Z,31.08
2022-11-24T08:35:48.132Z,30.00
2022-11-24T08:36:51.194Z,42.67
2022-11-24T08:37:53.286Z,31.70
2022-11-24T08:38:57.231Z,25.42
2022-11-24T08:40:00.528Z,31.45
2022-11-24T08:41:05.414Z,27.00
2022-11-24T08:42:08.530Z,28.83
2022-11-24T08:43:11.603Z,32.67
2022-11-24T08:44:15.915Z,28.25
2022-11-24T08:45:21.230Z,28.27
2022-11-24T08:46:24.698Z,31.63
2022-11-24T08:47:27.811Z,30.15
2022-11-24T08:48:31.736Z,29.08
2022-11-24T08:49:34.902Z,32.38
2022-11-24T08:50:37.539Z,28.05
2022-11-24T08:51:40.590Z,23.98
2022-11-24T08:52:42.648Z,29.48
2022-11-24T08:53:46.268Z,26.50
2022-11-24T08:54:50.340Z,27.08
2022-11-24T08:55:52.478Z,24.63
2022-11-24T08:56:56.872Z,28.45
2022-11-24T08:57:58.947Z,31.48
2022-11-24T08:59:02.266Z,33.50
2022-11-24T09:00:04.993Z,25.98
2022-11-24T09:01:09.843Z,23.05
2022-11-24T09:02:13.708Z,31.88
2022-11-24T09:03:15.794Z,35.05
2022-11-24T09:04:18.930Z,30.38
2022-11-24T09:05:50.066Z,22.80
2022-11-24T09:06:44.337Z,31.58
2022-11-24T09:07:47.505Z,30.45
2022-11-24T09:08:51.249Z,28.88
2022-11-24T09:09:54.366Z,24.48
2022-11-24T09:10:59.737Z,17.50
2022-11-24T09:12:05.231Z,34.33
2022-11-24T09:13:09.603Z,25.58
2022-11-24T09:14:12.798Z,18.75
2022-11-24T09:15:17.054Z,29.48
2022-11-24T09:16:23.013Z,29.85
2022-11-24T09:17:26.290Z,28.33
2022-11-24T09:18:30.439Z,21.27
2022-11-24T09:19:33.909Z,22.40
2022-11-24T09:20:36.144Z,27.92
2022-11-24T09:21:39.382Z,20.40
2022-11-24T09:22:43.077Z,27.05
2022-11-24T09:23:46.938Z,26.35
2022-11-24T09:24:50.127Z,29.15
2022-11-24T09:25:53.279Z,26.10
2022-11-24T09:26:57.035Z,20.52
2022-11-24T09:28:00.452Z,23.65
2022-11-24T09:29:04.860Z,25.17
2022-11-24T09:30:08.426Z,26.25
2022-11-24T09:31:14.394Z,21.40
2022-11-24T09:32:17.601Z,20.42
2022-11-24T09:33:20.664Z,22.95
2022-11-24T09:34:23.740Z,24.38
2022-11-24T09:35:25.838Z,26.52
2022-11-24T09:36:29.066Z,21.60
2022-11-24T09:37:32.814Z,26.30
2022-11-24T09:38:36.630Z,22.67
2022-11-24T09:39:39.693Z,22.10
2022-11-24T09:40:41.812Z,29.70
2022-11-24T09:41:58.854Z,19.73
2022-11-24T09:43:08.404Z,16.90
2022-11-24T09:44:34.760Z,23.73
2022-11-24T09:46:05.007Z,23.52
2022-11-24T09:47:21.856Z,19.67
2022-11-24T09:48:30.969Z,19.80
2022-11-24T09:49:40.183Z,21.63
2022-11-24T09:50:47.119Z,19.13
2022-11-24T09:51:53.963Z,22.88
2022-11-24T09:53:04.299Z,25.23
2022-11-24T09:54:13.370Z,18.88
2022-11-24T09:55:33.196Z,17.83
2022-11-24T09:56:41.561Z,30.45
2022-11-24T09:57:44.026Z,26.92
2022-11-24T09:58:51.699Z,17.85
2022-11-24T09:59:59.841Z,22.42
2022-11-24T10:01:06.057Z,18.98
2022-11-24T10:02:13.115Z,17.92
2022-11-24T10:03:21.075Z,18.85
2022-11-24T10:04:28.195Z,21.73
2022-11-24T10:05:33.884Z,16.85
2022-11-24T10:06:42.049Z,21.35
2022-11-24T10:07:56.464Z,21.77
2022-11-24T10:09:14.599Z,21.10
2022-11-24T10:10:24.805Z,24.35
2022-11-24T10:12:48.964Z,21.52
2022-11-24T10:14:17.231Z,22.27
2022-11-24T10:15:28.077Z,20.92
2022-11-24T10:16:44.236Z,19.02
2022-11-24T10:18:02.413Z,20.58
2022-11-24T10:19:14.497Z,20.08
2022-11-24T10:20:26.694Z,22.77
2022-11-24T10:21:57.718Z,23.23
2022-11-24T10:25:39.839Z,20.63
2022-11-24T10:26:49.954Z,19.95
2022-11-24T10:27:57.718Z,21.13
2022-11-24T10:29:07.422Z,23.08
2022-11-24T10:30:16.848Z,25.67
2022-11-24T10:31:26.051Z,22.95
2022-11-24T10:32:34.551Z,22.73
2022-11-24T10:33:37.722Z,19.52
2022-11-24T10:34:44.748Z,19.92
2022-11-24T10:35:52.977Z,23.15
2022-11-24T10:37:03.125Z,17.98
2022-11-24T10:38:31.538Z,23.98
2022-11-24T10:39:40.534Z,20.45
2022-11-24T10:41:02.980Z,18.20
2022-11-24T10:42:13.447Z,20.60
2022-11-24T10:43:16.603Z,24.80
2022-11-24T10:44:20.156Z,27.88
2022-11-24T10:45:23.843Z,22.85
2022-11-24T10:46:28.705Z,20.80
2022-11-24T10:47:32.589Z,21.83
2022-11-24T10:48:41.704Z,28.02
2022-11-24T10:49:52.349Z,26.92
2022-11-24T10:51:06.672Z,23.65
2022-11-24T10:52:14.928Z,23.52
2022-11-24T10:53:22.858Z,23.25
2022-11-24T10:54:24.983Z,25.48
2022-11-24T10:55:28.023Z,20.85
2022-11-24T10:56:38.939Z,21.50
2022-11-24T10:57:42.266Z,23.05
2022-11-24T10:58:45.385Z,24.98
2022-11-24T10:59:49.802Z,26.17
2022-11-24T11:00:52.950Z,20.77
2022-11-24T11:01:56.770Z,24.52
2022-11-24T11:03:17.997Z,26.45
2022-11-24T11:04:21.901Z,25.75
2022-11-24T11:05:42.105Z,19.80
2022-11-24T11:06:45.699Z,22.67
2022-11-24T11:07:48.870Z,20.88
2022-11-24T11:09:20.151Z,23.38
2022-11-24T11:10:25.087Z,21.50
2022-11-24T11:11:29.936Z,27.92
2022-11-24T11:12:47.393Z,30.88
2022-11-24T11:14:01.919Z,22.77
2022-11-24T11:15:24.702Z,21.73
2022-11-24T11:16:34.562Z,23.88
2022-11-24T11:17:39.469Z,25.97
2022-11-24T11:18:49.915Z,25.45
2022-11-24T11:19:58.605Z,23.52
2022-11-24T11:21:06.273Z,19.45
2022-11-24T11:22:19.686Z,20.35
2022-11-24T11:23:28.130Z,26.75
2022-11-24T11:24:30.780Z,27.10
2022-11-24T11:25:36.480Z,20.05
2022-11-24T11:26:39.479Z,23.60
2022-11-24T11:27:43.154Z,21.85
2022-11-24T11:31:15.595Z,25.35
2022-11-24T11:34:51.493Z,24.02
2022-11-24T11:35:53.921Z,24.40
2022-11-24T11:36:59.788Z,18.90
2022-11-24T11:38:06.888Z,22.48
2022-11-24T11:39:21.326Z,20.52
2022-11-24T11:40:28.718Z,27.50
2022-11-24T11:41:34.825Z,27.17
2022-11-24T11:43:02.002Z,24.30
2022-11-24T11:44:27.303Z,23.67
2022-11-24T11:45:36.566Z,20.85
2022-11-24T11:46:38.714Z,21.38
2022-11-24T11:47:46.142Z,22.73
2022-11-24T11:48:48.680Z,30.17
2022-11-24T11:49:52.341Z,28.17
2022-11-24T11:51:23.687Z,22.55
2022-11-24T11:52:48.918Z,22.15
2022-11-24T11:54:01.906Z,24.05
2022-11-24T11:55:36.219Z,25.65
2022-11-24T11:56:45.458Z,21.00
2022-11-24T11:57:58.925Z,25.45
2022-11-24T11:59:27.628Z,23.88
2022-11-24T12:00:38.212Z,29.00
2022-11-24T12:02:05.191Z,25.08
2022-11-24T12:03:35.784Z,26.30
2022-11-24T12:04:49.627Z,23.05
2022-11-24T12:06:04.561Z,25.33
2022-11-24T12:07:36.994Z,20.75
2022-11-24T12:09:18.528Z,23.27
2022-11-24T12:10:28.184Z,21.73
2022-11-24T12:11:38.169Z,20.08
2022-11-24T12:13:28.207Z,30.65
2022-11-24T12:14:39.438Z,30.27
2022-11-24T12:15:47.945Z,24.00
2022-11-24T12:17:02.850Z,23.15
2022-11-24T12:18:40.183Z,22.60
2022-11-24T12:19:50.844Z,27.50
2022-11-24T12:21:04.505Z,25.60
2022-11-24T12:22:14.814Z,19.30
2022-11-24T12:23:46.147Z,26.70
2022-11-24T12:24:56.370Z,26.98
2022-11-24T12:26:06.905Z,33.90
2022-11-24T12:27:23.210Z,24.15
2022-11-24T12:28:38.592Z,32.20
2022-11-24T12:30:10.700Z,23.70
2022-11-24T12:31:22.961Z,23.30
2022-11-24T12:32:44.313Z,25.50
2022-11-24T12:34:14.684Z,28.40
2022-11-24T12:35:23.678Z,23.38
2022-11-24T12:36:40.139Z,23.48
2022-11-24T12:37:57.563Z,23.15
2022-11-24T12:39:07.533Z,23.83
2022-11-24T12:40:18.679Z,21.17
2022-11-24T12:41:47.553Z,22.35
2022-11-24T12:43:00.270Z,22.85
2022-11-24T12:44:05.094Z,21.90
2022-11-24T12:45:17.467Z,26.30
2022-11-24T12:46:29.489Z,23.02
2022-11-24T12:47:42.973Z,27.55
2022-11-24T12:48:57.999Z,25.30
2022-11-24T12:50:08.977Z,24.20
2022-11-24T12:51:18.695Z,23.90
2022-11-24T12:52:27.239Z,24.55
2022-11-24T12:53:34.587Z,22.05
2022-11-24T12:54:40.109Z,26.35
2022-11-24T12:55:44.381Z,22.52
2022-11-24T12:56:53.781Z,25.23
2022-11-24T12:58:09.462Z,17.67
2022-11-24T12:59:29.020Z,17.27
2022-11-24T13:00:39.869Z,21.65
2022-11-24T13:01:54.557Z,22.08
2022-11-24T13:03:11.110Z,21.60
2022-11-24T13:04:35.385Z,27.13
2022-11-24T13:05:46.782Z,21.17
2022-11-24T13:06:53.438Z,24.40
2022-11-24T13:07:59.050Z,23.65
2022-11-24T13:09:09.167Z,21.13
2022-11-24T13:10:54.672Z,19.38
2022-11-24T13:12:08.767Z,24.42
2022-11-24T13:13:12.378Z,21.10
2022-11-24T13:14:19.447Z,21.48
2022-11-24T13:15:44.699Z,20.75
2022-11-24T13:18:43.913Z,17.77
2022-11-24T13:19:47.582Z,16.27
2022-11-24T13:20:49.674Z,23.85
2022-11-24T13:22:03.870Z,20.23
2022-11-24T13:23:21.524Z,23.00
2022-11-24T13:24:26.702Z,19.33
2022-11-24T13:25:31.462Z,19.30
2022-11-24T13:26:47.332Z,22.00
2022-11-24T13:27:53.171Z,28.13
2022-11-24T13:29:08.959Z,25.27
2022-11-24T13:30:59.506Z,24.58
2022-11-24T13:32:53.060Z,19.67
2022-11-24T13:33:57.715Z,22.88
2022-11-24T13:35:13.217Z,21.27
2022-11-24T13:36:32.368Z,22.17
2022-11-24T13:37:51.685Z,28.10
2022-11-24T13:38:54.609Z,18.88
2022-11-24T13:39:59.324Z,18.75
2022-11-24T13:41:21.226Z,18.67
2022-11-24T13:42:43.776Z,19.27
2022-11-24T13:44:21.495Z,15.23
2022-11-24T13:45:50.249Z,17.80
2022-11-24T13:47:05.757Z,21.20
2022-11-24T13:49:00.137Z,23.70
2022-11-24T13:50:03.862Z,21.23
2022-11-24T13:51:23.500Z,26.17
2022-11-24T13:52:49.547Z,27.08
2022-11-24T13:53:56.131Z,25.23
2022-11-24T13:54:59.236Z,22.98
2022-11-24T13:56:09.919Z,21.98
2022-11-24T13:58:37.285Z,16.10
2022-11-24T13:59:40.542Z,17.75
2022-11-24T14:01:02.649Z,17.67
2022-11-24T14:02:23.019Z,21.42
2022-11-24T14:03:29.654Z,21.55
2022-11-24T14:04:39.439Z,18.77
2022-11-24T14:05:49.381Z,19.70
2022-11-24T14:07:05.592Z,24.30
2022-11-24T14:08:20.545Z,19.60
2022-11-24T14:09:28.069Z,22.58
2022-11-24T14:10:35.306Z,17.38
2022-11-24T14:11:38.753Z,24.98
2022-11-24T14:12:41.775Z,23.30
2022-11-24T14:13:45.281Z,24.85
2022-11-24T14:14:49.727Z,18.38
2022-11-24T14:16:04.250Z,22.15
2022-11-24T14:17:19.660Z,18.20
2022-11-24T14:18:22.542Z,23.42
2022-11-24T14:19:30.854Z,21.75
2022-11-24T14:20:36.657Z,23.88
2022-11-24T14:21:41.620Z,29.85
2022-11-24T14:22:44.913Z,23.00
2022-11-24T14:23:50.437Z,19.08
2022-11-24T14:24:56.262Z,18.60
2022-11-24T14:25:58.319Z,20.00
2022-11-24T14:27:02.183Z,25.48
2022-11-24T14:28:15.410Z,21.90
2022-11-24T14:29:20.479Z,17.90